Time;durP1;ratioP1;P1;durP2;ratioP2;P2;SDS_P1;SDS_P2;PMS_P1;PMS_P2;Temp;Humidity;BMP_temperature;BMP_pressure;BME280_temperature;BME280_humidity;BME280_pressure;Samples;Min_cycle;Max_cycle;Signal;HPM_P1;HPM_P2
2022/09/09 00:02:20;;;;;;;8.02;1.90;;;16.10;99.90;;;;;;4991855;28;20497;-45
2022/09/09 00:05:01;;;;;;;10.13;1.92;;;16.10;99.90;;;;;;4991892;28;20031;-49
2022/09/09 00:07:46;;;;;;;10.05;1.88;;;16.10;99.90;;;;;;4997935;28;20052;-48
2022/09/09 00:10:46;;;;;;;9.73;1.92;;;16.00;99.90;;;;;;5011279;28;20401;-48
2022/09/09 00:13:45;;;;;;;9.40;2.35;;;16.00;99.90;;;;;;5011435;28;20026;-48
2022/09/09 00:16:24;;;;;;;7.15;1.65;;;16.00;99.90;;;;;;5003931;28;20401;-48
2022/09/09 00:19:17;;;;;;;4.70;1.33;;;16.00;99.90;;;;;;5011075;28;20027;-45
2022/09/09 00:21:53;;;;;;;8.65;1.73;;;16.00;99.90;;;;;;5011294;28;20029;-52
2022/09/09 00:24:41;;;;;;;12.90;2.03;;;15.90;99.90;;;;;;5011240;28;20428;-48
2022/09/09 00:27:16;;;;;;;7.78;1.58;;;15.90;99.90;;;;;;5005411;28;20363;-43
2022/09/09 00:29:54;;;;;;;9.60;1.50;;;15.90;99.90;;;;;;5011528;28;20028;-43
2022/09/09 00:32:22;;;;;;;8.77;1.33;;;15.90;99.90;;;;;;5011189;28;20025;-44
2022/09/09 00:34:52;;;;;;;9.70;1.73;;;15.80;99.90;;;;;;5010929;28;20120;-43
2022/09/09 00:37:20;;;;;;;5.38;1.25;;;15.80;99.90;;;;;;5011226;28;20018;-51
2022/09/09 00:39:49;;;;;;;7.78;1.30;;;15.80;99.90;;;;;;5011226;28;20058;-55
2022/09/09 00:42:29;;;;;;;6.93;1.30;;;15.80;99.90;;;;;;5011196;28;20107;-48
2022/09/09 00:45:13;;;;;;;6.38;1.45;;;15.80;99.90;;;;;;5010918;28;20362;-51
2022/09/09 00:47:49;;;;;;;7.20;1.40;;;15.80;99.90;;;;;;5010665;28;20034;-55
2022/09/09 00:50:24;;;;;;;8.45;1.60;;;15.80;99.90;;;;;;5011306;28;20348;-57
2022/09/09 00:52:50;;;;;;;7.30;2.03;;;15.80;99.90;;;;;;5011017;28;20515;-50
2022/09/09 00:55:40;;;;;;;6.95;1.67;;;15.80;99.90;;;;;;5010832;28;20041;-52
2022/09/09 00:58:08;;;;;;;7.93;1.48;;;15.80;99.90;;;;;;5011304;28;20373;-52
2022/09/09 01:00:48;;;;;;;6.65;1.10;;;15.80;99.90;;;;;;5010858;28;20022;-51
2022/09/09 01:03:20;;;;;;;5.75;1.00;;;15.70;99.90;;;;;;5012230;28;20452;-48
2022/09/09 01:05:57;;;;;;;11.30;1.65;;;15.70;99.90;;;;;;5005266;28;20034;-48
2022/09/09 01:08:38;;;;;;;9.38;1.60;;;15.70;99.90;;;;;;5014689;28;20045;-47
2022/09/09 01:11:04;;;;;;;7.68;1.65;;;15.70;99.90;;;;;;5003110;28;20045;-50
2022/09/09 01:13:35;;;;;;;5.05;1.30;;;15.60;99.90;;;;;;5014650;28;20022;-45
2022/09/09 01:16:05;;;;;;;6.43;1.63;;;15.60;99.90;;;;;;5014459;28;20030;-50
2022/09/09 01:18:43;;;;;;;5.22;1.40;;;15.60;99.90;;;;;;5014755;28;20064;-47
2022/09/09 01:21:20;;;;;;;6.40;1.95;;;15.50;99.90;;;;;;5001918;28;20040;-48
2022/09/09 01:23:56;;;;;;;4.63;1.00;;;15.50;99.90;;;;;;5014274;28;20539;-49
2022/09/09 01:26:32;;;;;;;8.43;1.95;;;15.50;99.90;;;;;;5014288;28;20076;-51
2022/09/09 01:28:57;;;;;;;5.30;1.20;;;15.50;99.90;;;;;;5014241;28;20034;-52
2022/09/09 01:31:32;;;;;;;6.30;1.35;;;15.60;99.90;;;;;;4996424;28;20032;-50
2022/09/09 01:33:58;;;;;;;5.00;1.08;;;15.50;99.90;;;;;;5013923;28;20388;-44
2022/09/09 01:37:06;;;;;;;2.95;0.93;;;15.50;99.90;;;;;;5013932;28;20030;-48
2022/09/09 01:39:34;;;;;;;5.18;1.17;;;15.50;99.90;;;;;;5011826;28;20042;-45
2022/09/09 01:42:01;;;;;;;4.30;1.10;;;15.60;99.90;;;;;;5014134;28;20049;-48
2022/09/09 01:44:27;;;;;;;8.85;1.20;;;15.50;99.90;;;;;;5013856;28;20053;-50
2022/09/09 01:46:52;;;;;;;2.70;0.90;;;15.50;99.90;;;;;;5013827;28;20034;-48
2022/09/09 01:49:18;;;;;;;8.98;1.40;;;15.40;99.90;;;;;;5013864;28;20022;-52
2022/09/09 01:51:47;;;;;;;4.07;1.20;;;15.40;99.90;;;;;;5013935;28;20037;-43
2022/09/09 01:54:13;;;;;;;4.35;0.95;;;15.40;99.90;;;;;;5013687;28;20057;-45
2022/09/09 01:57:01;;;;;;;5.75;1.00;;;15.40;99.90;;;;;;5013440;28;20470;-50
2022/09/09 01:59:50;;;;;;;6.53;1.13;;;15.40;99.90;;;;;;5013635;28;20041;-46
2022/09/09 02:02:44;;;;;;;5.22;1.30;;;15.40;99.90;;;;;;5013760;28;20096;-52
2022/09/09 02:05:18;;;;;;;2.92;1.00;;;15.30;99.90;;;;;;5003423;28;20108;-55
2022/09/09 02:07:49;;;;;;;5.03;0.90;;;15.30;99.90;;;;;;5013586;28;20397;-44
2022/09/09 02:10:23;;;;;;;4.85;1.27;;;15.30;99.90;;;;;;5013502;28;20085;-50
2022/09/09 02:13:04;;;;;;;3.42;1.10;;;15.30;99.90;;;;;;5013707;28;20495;-48
2022/09/09 02:15:57;;;;;;;3.38;1.02;;;15.20;99.90;;;;;;5011741;28;20073;-46
2022/09/09 02:19:06;;;;;;;3.13;1.05;;;15.20;99.90;;;;;;5013409;28;20030;-50
2022/09/09 02:21:35;;;;;;;2.25;0.85;;;15.30;99.90;;;;;;5013637;28;20052;-51
2022/09/09 02:24:04;;;;;;;4.88;1.45;;;15.30;99.90;;;;;;5013282;28;20116;-48
2022/09/09 02:26:31;;;;;;;;;;;15.30;99.90;;;;;;5013571;28;20029;-48
2022/09/09 02:28:59;;;;;;;5.55;1.20;;;15.30;99.90;;;;;;5013168;28;19905;-46
2022/09/09 02:31:25;;;;;;;6.97;1.30;;;15.30;99.90;;;;;;5013198;28;20022;-45
2022/09/09 02:33:57;;;;;;;4.78;1.20;;;15.30;99.90;;;;;;5012984;28;20030;-48
2022/09/09 02:36:25;;;;;;;4.18;1.13;;;15.30;99.90;;;;;;5008491;28;20029;-44
2022/09/09 02:38:53;;;;;;;4.97;1.40;;;15.30;99.90;;;;;;5012931;28;20025;-49
2022/09/09 02:41:41;;;;;;;4.90;1.55;;;15.20;99.90;;;;;;5012837;28;20396;-51
2022/09/09 02:44:17;;;;;;;5.10;1.42;;;15.20;99.90;;;;;;5010507;28;20022;-47
2022/09/09 02:46:56;;;;;;;3.35;1.55;;;15.10;99.90;;;;;;5010420;28;20608;-49
2022/09/09 02:49:46;;;;;;;6.32;1.52;;;15.10;99.90;;;;;;5001585;28;20022;-48
2022/09/09 02:52:18;;;;;;;5.25;1.77;;;15.00;99.90;;;;;;4999400;28;20029;-45
2022/09/09 02:54:45;;;;;;;5.22;1.23;;;15.00;99.90;;;;;;5012368;28;20084;-49
2022/09/09 02:57:23;;;;;;;7.45;1.63;;;15.10;99.90;;;;;;5012771;28;20081;-46
2022/09/09 02:59:51;;;;;;;5.07;1.60;;;15.00;99.90;;;;;;5012616;28;20068;-52
2022/09/09 03:02:18;;;;;;;3.40;1.30;;;15.10;99.90;;;;;;5000338;28;20026;-46
2022/09/09 03:04:44;;;;;;;4.75;1.70;;;15.10;99.90;;;;;;5010555;28;20053;-47
2022/09/09 03:07:11;;;;;;;6.35;1.75;;;15.20;99.90;;;;;;5012527;28;20022;-54
2022/09/09 03:09:36;;;;;;;6.45;1.65;;;15.20;99.90;;;;;;5012160;28;20050;-51
2022/09/09 03:12:04;;;;;;;6.97;1.50;;;15.10;99.90;;;;;;5012545;28;20395;-50
2022/09/09 03:14:30;;;;;;;3.25;1.50;;;15.10;99.90;;;;;;5012218;28;20046;-47
2022/09/09 03:16:57;;;;;;;6.32;1.73;;;15.00;99.90;;;;;;5012116;28;20033;-48
2022/09/09 03:19:23;;;;;;;4.45;1.73;;;15.00;99.90;;;;;;4999581;28;20471;-52
2022/09/09 03:21:49;;;;;;;5.35;1.77;;;15.00;99.90;;;;;;5011069;28;20092;-46
2022/09/09 03:24:15;;;;;;;5.78;2.00;;;14.90;99.90;;;;;;5012151;28;20054;-52
2022/09/09 03:26:44;;;;;;;4.85;1.90;;;14.90;99.90;;;;;;5011461;28;20058;-52
2022/09/09 03:29:12;;;;;;;3.17;1.55;;;14.90;99.90;;;;;;5012715;28;20033;-45
2022/09/09 03:31:38;;;;;;;3.95;1.90;;;14.90;99.90;;;;;;5012124;28;20037;-52
2022/09/09 03:34:04;;;;;;;6.03;2.10;;;14.90;99.90;;;;;;5011906;28;20036;-55
2022/09/09 03:36:30;;;;;;;7.53;1.95;;;14.90;99.90;;;;;;5011682;28;20038;-49
2022/09/09 03:38:55;;;;;;;6.13;2.10;;;15.00;99.90;;;;;;5012049;28;20026;-50
2022/09/09 03:41:26;;;;;;;6.18;1.75;;;15.00;99.90;;;;;;5011956;28;20592;-49
2022/09/09 03:43:52;;;;;;;7.53;1.88;;;15.10;99.90;;;;;;5011769;28;20109;-51
2022/09/09 03:46:19;;;;;;;8.70;1.85;;;15.10;99.90;;;;;;5011694;28;20060;-48
2022/09/09 03:48:45;;;;;;;2.97;1.80;;;15.20;99.90;;;;;;5011640;28;20080;-44
2022/09/09 03:51:10;;;;;;;5.05;2.00;;;15.20;99.90;;;;;;5011750;28;20030;-44
2022/09/09 03:53:37;;;;;;;6.00;2.00;;;15.10;99.90;;;;;;5011732;28;20062;-43
2022/09/09 03:56:04;;;;;;;5.40;1.60;;;15.20;99.90;;;;;;5011433;28;20473;-43
2022/09/09 03:58:29;;;;;;;6.97;1.80;;;15.20;99.90;;;;;;5011841;28;20030;-45
2022/09/09 04:01:01;;;;;;;7.53;1.75;;;15.20;99.90;;;;;;5011604;28;20033;-47
2022/09/09 04:03:28;;;;;;;3.45;1.80;;;15.20;99.90;;;;;;5011253;28;20492;-47
2022/09/09 04:05:55;;;;;;;4.43;2.17;;;15.20;99.90;;;;;;5011640;28;20033;-47
2022/09/09 04:08:21;;;;;;;7.57;2.47;;;15.20;99.90;;;;;;5011539;28;20052;-51
2022/09/09 04:10:50;;;;;;;6.53;1.90;;;15.20;99.90;;;;;;5011126;28;20378;-44
2022/09/09 04:13:17;;;;;;;5.67;1.87;;;15.20;99.90;;;;;;5011419;28;20018;-46
2022/09/09 04:15:45;;;;;;;5.47;1.80;;;15.20;99.90;;;;;;5011413;28;20293;-44
2022/09/09 04:18:11;;;;;;;6.15;2.47;;;15.20;99.90;;;;;;5011223;28;20026;-46
2022/09/09 04:20:38;;;;;;;5.57;1.80;;;15.20;99.90;;;;;;5011547;28;20038;-43
2022/09/09 04:23:04;;;;;;;5.82;1.98;;;15.20;99.90;;;;;;5011353;28;20025;-53
2022/09/09 04:25:29;;;;;;;5.00;1.70;;;15.20;99.90;;;;;;4993729;28;20065;-53
2022/09/09 04:27:56;;;;;;;6.95;2.15;;;15.20;99.90;;;;;;5011159;28;20064;-50
2022/09/09 04:30:23;;;;;;;4.85;1.70;;;15.30;99.90;;;;;;5011155;28;20026;-49
2022/09/09 04:32:48;;;;;;;6.70;1.80;;;15.30;99.90;;;;;;5011052;28;20381;-54
2022/09/09 04:35:14;;;;;;;4.05;1.88;;;15.30;99.90;;;;;;5011153;28;20037;-47
2022/09/09 04:37:40;;;;;;;7.30;1.90;;;15.30;99.90;;;;;;5011969;28;20022;-53
2022/09/09 04:40:09;;;;;;;6.25;1.67;;;15.30;99.90;;;;;;5014767;28;20381;-47
2022/09/09 04:42:39;;;;;;;5.28;1.83;;;15.30;99.90;;;;;;5015263;28;20025;-47
2022/09/09 04:45:06;;;;;;;4.55;1.85;;;15.20;99.90;;;;;;4997600;28;20053;-49
2022/09/09 04:47:32;;;;;;;4.10;1.98;;;15.30;99.90;;;;;;4996545;28;20165;-49
2022/09/09 04:49:58;;;;;;;3.63;1.83;;;15.30;99.90;;;;;;4995309;28;20101;-48
2022/09/09 04:52:23;;;;;;;7.50;2.08;;;15.30;99.90;;;;;;4998873;28;20033;-54
2022/09/09 04:54:49;;;;;;;5.95;2.00;;;15.30;99.90;;;;;;5015070;28;20113;-46
2022/09/09 04:57:15;;;;;;;7.95;1.88;;;15.30;99.90;;;;;;5014955;28;20384;-47
2022/09/09 04:59:40;;;;;;;5.25;2.15;;;15.30;99.90;;;;;;5014693;28;20127;-51
2022/09/09 05:02:06;;;;;;;3.35;1.75;;;15.30;99.90;;;;;;5014695;28;20018;-48
2022/09/09 05:04:33;;;;;;;5.25;2.20;;;15.30;99.90;;;;;;5014778;28;20033;-45
2022/09/09 05:06:59;;;;;;;6.93;1.95;;;15.20;99.90;;;;;;5014628;28;20465;-48
2022/09/09 05:09:25;;;;;;;7.90;2.00;;;15.30;99.90;;;;;;5014505;28;20050;-48
2022/09/09 05:11:51;;;;;;;8.00;2.40;;;15.20;99.90;;;;;;5014241;28;20050;-49
2022/09/09 05:14:17;;;;;;;5.50;2.28;;;15.30;99.90;;;;;;5014365;28;20042;-49
2022/09/09 05:16:44;;;;;;;7.55;2.05;;;15.20;99.90;;;;;;5014586;28;20025;-49
2022/09/09 05:19:10;;;;;;;4.38;2.08;;;15.20;99.90;;;;;;5014478;28;20060;-49
2022/09/09 05:21:36;;;;;;;4.95;2.40;;;15.20;99.90;;;;;;5014434;28;20045;-47
2022/09/09 05:24:02;;;;;;;5.85;2.30;;;15.20;99.90;;;;;;5014449;28;20045;-54
2022/09/09 05:26:29;;;;;;;5.10;2.40;;;15.20;99.90;;;;;;5014144;28;20022;-50
2022/09/09 05:28:55;;;;;;;5.50;2.40;;;15.30;99.90;;;;;;5014305;28;20113;-49
2022/09/09 05:31:20;;;;;;;5.70;2.30;;;15.20;99.90;;;;;;5014195;28;20014;-47
2022/09/09 05:33:49;;;;;;;4.97;2.08;;;15.20;99.90;;;;;;5014305;28;20460;-51
2022/09/09 05:36:20;;;;;;;5.07;2.00;;;15.20;99.90;;;;;;5014167;28;20030;-48
2022/09/09 05:38:46;;;;;;;4.13;1.90;;;15.20;99.90;;;;;;5014209;28;20026;-57
2022/09/09 05:41:15;;;;;;;7.05;2.10;;;15.30;99.90;;;;;;5013974;28;20022;-46
2022/09/09 05:43:44;;;;;;;3.30;2.00;;;15.30;99.90;;;;;;5014060;28;20026;-48
2022/09/09 05:46:15;;;;;;;6.30;2.38;;;15.30;99.90;;;;;;5014198;28;20057;-50
2022/09/09 05:48:43;;;;;;;8.90;2.67;;;15.30;99.90;;;;;;5013635;28;20037;-45
2022/09/09 05:51:12;;;;;;;7.30;2.50;;;15.30;99.90;;;;;;5006666;28;20359;-44
2022/09/09 05:53:38;;;;;;;4.95;2.25;;;15.30;99.90;;;;;;5007778;28;20025;-45
2022/09/09 05:56:12;;;;;;;5.47;2.15;;;15.30;99.90;;;;;;5013584;28;20503;-47
2022/09/09 05:58:38;;;;;;;7.03;2.60;;;15.40;99.90;;;;;;5013807;28;20045;-47
2022/09/09 06:01:09;;;;;;;4.30;2.25;;;15.40;99.90;;;;;;5013438;28;20503;-52
2022/09/09 06:03:36;;;;;;;6.43;2.40;;;15.50;99.90;;;;;;5013450;28;20026;-49
2022/09/09 06:06:05;;;;;;;6.13;2.33;;;15.50;99.90;;;;;;5013139;28;20029;-51
2022/09/09 06:08:32;;;;;;;6.43;3.35;;;15.50;99.90;;;;;;5003212;28;20506;-47
2022/09/09 06:11:05;;;;;;;6.15;2.40;;;15.60;99.90;;;;;;4997385;28;20128;-49
2022/09/09 06:13:31;;;;;;;5.82;2.70;;;15.60;99.90;;;;;;4993689;28;20387;-47
2022/09/09 06:15:58;;;;;;;6.20;2.45;;;15.70;99.90;;;;;;4993772;28;20034;-47
2022/09/09 06:18:24;;;;;;;6.00;2.47;;;15.70;99.90;;;;;;4993634;28;20101;-46
2022/09/09 06:21:01;;;;;;;6.13;2.50;;;15.70;99.90;;;;;;4993708;28;20036;-46
2022/09/09 06:23:28;;;;;;;6.05;2.65;;;15.70;99.90;;;;;;4993666;28;20430;-52
2022/09/09 06:26:27;;;;;;;7.40;2.90;;;15.70;99.90;;;;;;4993690;28;20022;-51
2022/09/09 06:28:54;;;;;;;6.15;2.70;;;15.70;99.90;;;;;;4976298;28;20133;-43
2022/09/09 06:31:23;;;;;;;7.57;3.40;;;15.70;99.90;;;;;;5006873;28;20125;-43
2022/09/09 06:33:50;;;;;;;8.35;3.10;;;15.70;99.90;;;;;;5011679;28;20042;-46
2022/09/09 06:36:21;;;;;;;6.75;3.42;;;15.80;99.90;;;;;;5011225;28;20028;-50
2022/09/09 06:38:47;;;;;;;8.55;3.10;;;15.80;99.90;;;;;;5012216;28;20026;-43
2022/09/09 06:41:16;;;;;;;7.03;2.90;;;15.80;99.90;;;;;;5011877;28;20088;-46
2022/09/09 06:43:41;;;;;;;6.57;3.10;;;15.80;99.90;;;;;;5009983;28;20043;-44
2022/09/09 06:46:21;;;;;;;8.85;2.95;;;15.80;99.90;;;;;;5009613;28;20033;-48
2022/09/09 06:48:47;;;;;;;4.85;2.78;;;15.80;99.90;;;;;;5011480;28;20033;-44
2022/09/09 06:51:23;;;;;;;8.13;3.25;;;15.80;99.90;;;;;;5008214;28;20026;-46
2022/09/09 06:53:54;;;;;;;5.10;2.70;;;15.70;99.90;;;;;;4999932;28;20458;-55
2022/09/09 06:56:27;;;;;;;6.72;2.83;;;15.80;99.90;;;;;;5007225;28;20025;-50
2022/09/09 06:58:55;;;;;;;8.13;3.50;;;15.80;99.90;;;;;;5010319;28;20028;-48
2022/09/09 07:01:24;;;;;;;7.78;3.58;;;15.90;99.90;;;;;;5010930;28;20391;-47
2022/09/09 07:03:52;;;;;;;8.82;3.58;;;16.10;99.90;;;;;;5011697;28;20022;-46
2022/09/09 07:06:21;;;;;;;6.50;2.85;;;16.10;99.90;;;;;;5003791;28;20109;-46
2022/09/09 07:08:54;;;;;;;8.32;2.70;;;16.20;99.90;;;;;;4992491;28;20042;-48
2022/09/09 07:11:21;;;;;;;6.57;3.10;;;16.20;99.90;;;;;;4996011;28;20469;-46
2022/09/09 07:13:48;;;;;;;7.10;3.58;;;16.30;99.90;;;;;;4992809;28;20034;-44
2022/09/09 07:16:16;;;;;;;7.70;2.80;;;16.30;99.90;;;;;;4992337;28;20031;-48
2022/09/09 07:18:43;;;;;;;6.90;2.83;;;16.30;99.90;;;;;;4992564;28;20023;-44
2022/09/09 07:21:12;;;;;;;6.00;3.05;;;16.30;99.90;;;;;;4992439;28;20026;-52
2022/09/09 07:23:41;;;;;;;5.53;2.80;;;16.30;99.90;;;;;;4992191;28;20031;-51
2022/09/09 07:26:15;;;;;;;5.82;2.72;;;16.30;99.90;;;;;;5004823;28;20494;-53
2022/09/09 07:28:41;;;;;;;7.82;2.80;;;16.30;99.90;;;;;;4992445;28;20041;-52
2022/09/09 07:31:13;;;;;;;5.18;2.67;;;16.40;99.90;;;;;;4992265;28;20026;-49
2022/09/09 07:33:40;;;;;;;6.05;3.03;;;16.40;99.90;;;;;;5004380;28;20018;-47
2022/09/09 07:36:21;;;;;;;11.80;3.30;;;16.50;99.90;;;;;;5009871;28;20107;-46
2022/09/09 07:38:51;;;;;;;7.05;3.10;;;16.50;99.90;;;;;;4988541;28;20046;-51
2022/09/09 07:41:27;;;;;;;;;;;16.50;99.90;;;;;;5009539;28;20100;-50
2022/09/09 07:43:54;;;;;;;8.30;3.20;;;16.40;99.90;;;;;;5011104;28;19913;-43
2022/09/09 07:46:21;;;;;;;7.45;3.08;;;16.50;99.90;;;;;;5008451;28;20034;-47
2022/09/09 07:48:52;;;;;;;8.13;3.25;;;16.50;99.90;;;;;;5006799;28;20493;-50
2022/09/09 07:51:25;;;;;;;5.90;3.80;;;16.40;99.90;;;;;;5008659;28;20026;-47
2022/09/09 07:53:59;;;;;;;8.93;4.07;;;16.50;99.90;;;;;;5008620;28;20034;-48
2022/09/09 07:56:27;;;;;;;7.70;3.80;;;16.60;99.90;;;;;;5006208;28;20037;-46
2022/09/09 07:58:54;;;;;;;8.80;4.25;;;16.60;99.90;;;;;;5007052;28;20045;-44
2022/09/09 08:01:22;;;;;;;6.38;3.75;;;16.70;99.90;;;;;;5008821;28;20370;-47
2022/09/09 08:04:02;;;;;;;8.88;3.25;;;16.70;99.90;;;;;;5009586;28;20112;-46
2022/09/09 08:06:47;;;;;;;5.68;3.25;;;16.70;99.90;;;;;;5006229;28;20023;-45
2022/09/09 08:09:14;;;;;;;6.15;3.80;;;16.70;99.90;;;;;;5005021;28;20049;-53
2022/09/09 08:11:40;;;;;;;6.88;3.83;;;16.80;99.90;;;;;;5008302;28;20112;-51
2022/09/09 08:14:07;;;;;;;12.00;4.00;;;16.90;99.90;;;;;;5008914;28;20022;-57
2022/09/09 08:16:36;;;;;;;5.63;3.58;;;17.10;99.90;;;;;;5008215;28;20099;-49
2022/09/09 08:19:03;;;;;;;7.20;3.22;;;17.20;99.90;;;;;;5008949;28;20393;-46
2022/09/09 08:21:31;;;;;;;6.15;3.55;;;17.50;99.90;;;;;;5008363;28;20033;-45
2022/09/09 08:23:59;;;;;;;5.53;3.15;;;17.80;99.90;;;;;;5009691;28;20033;-44
2022/09/09 08:26:30;;;;;;;6.18;2.50;;;17.90;99.90;;;;;;5009831;28;20018;-44
2022/09/09 08:28:58;;;;;;;5.78;3.00;;;18.00;99.90;;;;;;5010532;28;20042;-49
2022/09/09 08:31:30;;;;;;;6.45;3.22;;;18.00;99.90;;;;;;5004344;28;20026;-51
2022/09/09 08:33:57;;;;;;;8.60;3.03;;;18.10;99.90;;;;;;4991483;28;20038;-51
2022/09/09 08:36:25;;;;;;;5.68;2.90;;;18.20;99.90;;;;;;5001140;28;20014;-47
2022/09/09 08:38:56;;;;;;;9.00;2.83;;;19.10;99.90;;;;;;5006494;28;20026;-47
2022/09/09 08:41:40;;;;;;;5.78;2.70;;;19.80;99.90;;;;;;5007164;28;20018;-44
2022/09/09 08:44:11;;;;;;;5.53;2.38;;;19.80;99.90;;;;;;5002188;28;20398;-45
2022/09/09 08:47:09;;;;;;;5.88;2.50;;;19.70;99.90;;;;;;5006108;28;20030;-44
2022/09/09 08:49:49;;;;;;;6.57;2.58;;;19.10;99.90;;;;;;5005294;28;20492;-45
2022/09/09 08:52:44;;;;;;;6.25;2.45;;;19.00;99.90;;;;;;5004464;28;20077;-57
2022/09/09 08:55:28;;;;;;;5.63;2.42;;;19.00;99.90;;;;;;4970604;28;20047;-49
2022/09/09 08:57:57;;;;;;;4.55;2.40;;;18.90;99.90;;;;;;5004362;28;20034;-45
2022/09/09 09:00:40;;;;;;;5.55;2.55;;;18.90;99.90;;;;;;5001470;28;20021;-49
2022/09/09 09:03:14;;;;;;;7.50;2.55;;;18.60;99.90;;;;;;5003707;28;20048;-51
2022/09/09 09:05:49;;;;;;;4.28;2.47;;;18.40;99.90;;;;;;5004323;28;20025;-50
2022/09/09 09:08:25;;;;;;;5.22;2.67;;;18.30;99.90;;;;;;5003911;28;20068;-49
2022/09/09 09:10:54;;;;;;;4.22;2.95;;;18.40;99.90;;;;;;5005545;28;20038;-50
2022/09/09 09:13:22;;;;;;;6.53;2.80;;;18.90;99.90;;;;;;5004080;28;20030;-48
2022/09/09 09:15:56;;;;;;;7.63;2.92;;;19.50;99.90;;;;;;5000770;28;20038;-51
2022/09/09 09:18:22;;;;;;;6.03;2.75;;;19.70;99.90;;;;;;5003162;28;20026;-50
2022/09/09 09:21:27;;;;;;;7.15;3.20;;;19.80;99.90;;;;;;5005443;28;20033;-46
2022/09/09 09:23:58;;;;;;;8.65;2.90;;;20.20;99.90;;;;;;4981383;28;20035;-48
2022/09/09 09:26:30;;;;;;;5.75;2.60;;;20.40;99.90;;;;;;5007173;28;20080;-52
2022/09/09 09:28:58;;;;;;;5.38;2.90;;;20.50;99.90;;;;;;5008178;28;20037;-47
2022/09/09 09:31:26;;;;;;;5.18;2.78;;;20.30;99.90;;;;;;5008795;28;20109;-52
2022/09/09 09:33:57;;;;;;;5.45;2.72;;;20.10;99.90;;;;;;5006514;28;20038;-52
2022/09/09 09:36:33;;;;;;;5.07;2.67;;;19.70;99.90;;;;;;5007839;28;20079;-52
2022/09/09 09:39:00;;;;;;;6.65;3.60;;;19.40;99.90;;;;;;5005732;28;20920;-48
2022/09/09 09:41:35;;;;;;;8.00;3.58;;;19.10;99.90;;;;;;5008384;28;20029;-46
2022/09/09 09:44:02;;;;;;;6.70;3.47;;;18.60;99.90;;;;;;5009659;28;20105;-50
2022/09/09 09:46:27;;;;;;;7.25;3.55;;;18.10;99.90;;;;;;5008903;28;20026;-50
2022/09/09 09:49:00;;;;;;;8.32;3.42;;;18.00;99.90;;;;;;5011943;28;20040;-55
2022/09/09 09:51:27;;;;;;;5.63;3.30;;;18.00;99.90;;;;;;5009113;28;20478;-48
2022/09/09 09:53:53;;;;;;;8.60;3.60;;;18.20;99.90;;;;;;5008772;28;20053;-45
2022/09/09 09:56:28;;;;;;;8.13;3.63;;;18.40;99.90;;;;;;5011650;28;20360;-51
2022/09/09 09:58:55;;;;;;;9.93;3.40;;;18.60;99.90;;;;;;5010494;28;20030;-48
2022/09/09 10:01:31;;;;;;;6.75;2.70;;;18.60;99.90;;;;;;5007245;28;20034;-47
2022/09/09 10:04:16;;;;;;;7.07;2.60;;;18.40;99.90;;;;;;5002600;28;20034;-50
2022/09/09 10:06:42;;;;;;;9.73;2.58;;;17.90;99.90;;;;;;4999472;28;20022;-54
2022/09/09 10:09:25;;;;;;;6.80;2.60;;;17.60;99.90;;;;;;4994211;28;20506;-52
2022/09/09 10:11:55;;;;;;;5.00;2.33;;;17.40;99.90;;;;;;5004211;28;20039;-50
2022/09/09 10:14:43;;;;;;;7.55;2.58;;;17.40;99.90;;;;;;5004590;28;20084;-49
2022/09/09 10:17:19;;;;;;;5.70;2.42;;;17.30;99.90;;;;;;5007160;28;20080;-52
2022/09/09 10:20:07;;;;;;;7.13;2.65;;;17.60;99.90;;;;;;5005673;28;20072;-52
2022/09/09 10:22:34;;;;;;;5.55;2.30;;;17.90;99.90;;;;;;5000485;28;20116;-47
2022/09/09 10:25:38;;;;;;;3.40;2.20;;;18.00;99.90;;;;;;5007522;28;20033;-51
2022/09/09 10:28:22;;;;;;;5.18;2.70;;;18.00;99.90;;;;;;4928583;29;20073;-48
2022/09/09 10:31:22;;;;;;;6.00;2.70;;;18.20;99.90;;;;;;4931448;29;20102;-50
2022/09/09 10:34:13;;;;;;;5.97;2.58;;;18.30;99.90;;;;;;4990607;28;20065;-45
2022/09/09 10:36:48;;;;;;;6.55;3.80;;;18.30;99.90;;;;;;5006275;28;20030;-48
2022/09/09 10:39:47;;;;;;;6.22;4.65;;;18.50;99.90;;;;;;5007083;28;20026;-46
2022/09/09 10:42:15;;;;;;;4.35;3.25;;;18.70;99.90;;;;;;4975047;28;20124;-48
2022/09/09 10:45:34;;;;;;;6.30;2.80;;;18.70;99.90;;;;;;5003296;28;20101;-52
2022/09/09 10:48:06;;;;;;;5.03;2.60;;;18.80;99.90;;;;;;4944518;29;20517;-54
2022/09/09 10:50:44;;;;;;;5.55;2.63;;;18.90;99.90;;;;;;4998910;28;20054;-62
2022/09/09 10:53:16;;;;;;;5.93;2.72;;;18.80;99.90;;;;;;5007549;28;20018;-51
2022/09/09 10:55:45;;;;;;;7.13;3.72;;;18.60;99.90;;;;;;4996109;28;20405;-41
2022/09/09 10:58:19;;;;;;;8.43;3.28;;;18.60;99.90;;;;;;5002262;28;20033;-49
2022/09/09 11:00:53;;;;;;;4.63;2.38;;;18.50;99.90;;;;;;5007700;28;20048;-57
2022/09/09 11:03:31;;;;;;;4.35;2.00;;;18.50;99.90;;;;;;5007134;28;20033;-42
2022/09/09 11:06:00;;;;;;;3.42;2.08;;;18.40;99.90;;;;;;5007114;28;20023;-48
2022/09/09 11:08:31;;;;;;;7.15;2.33;;;18.60;99.90;;;;;;5001967;28;20041;-48
2022/09/09 11:11:13;;;;;;;5.25;2.17;;;18.90;99.90;;;;;;5005489;28;20037;-50
2022/09/09 11:14:09;;;;;;;4.63;1.92;;;19.30;99.90;;;;;;5008099;28;20029;-46
2022/09/09 11:16:52;;;;;;;4.40;1.90;;;20.10;99.90;;;;;;5006601;28;20034;-49
2022/09/09 11:19:37;;;;;;;3.95;1.80;;;20.90;99.90;;;;;;5009564;28;20364;-45
2022/09/09 11:22:15;;;;;;;5.93;1.80;;;21.40;99.90;;;;;;5001128;28;20044;-51
2022/09/09 11:24:50;;;;;;;4.45;2.00;;;21.60;99.90;;;;;;5009501;28;20096;-44
2022/09/09 11:27:27;;;;;;;4.72;1.63;;;21.80;99.90;;;;;;5008198;28;20026;-51
2022/09/09 11:30:14;;;;;;;3.67;1.40;;;22.00;99.90;;;;;;5005733;28;20029;-53
2022/09/09 11:32:43;;;;;;;7.63;1.75;;;22.10;99.90;;;;;;5000929;28;20041;-52
2022/09/09 11:35:09;;;;;;;9.77;2.45;;;22.00;99.90;;;;;;4992368;28;20112;-52
2022/09/09 11:37:53;;;;;;;5.70;1.50;;;22.40;99.90;;;;;;4992230;28;20468;-49
2022/09/09 11:40:25;;;;;;;5.15;1.30;;;23.10;99.90;;;;;;4992310;28;20097;-47
2022/09/09 11:43:02;;;;;;;2.55;1.30;;;23.30;99.90;;;;;;4992240;28;20037;-49
2022/09/09 11:45:29;;;;;;;2.30;1.25;;;23.90;99.90;;;;;;5005590;28;20027;-49
2022/09/09 11:48:01;;;;;;;4.28;0.90;;;24.30;99.90;;;;;;5004361;28;20460;-50
2022/09/09 11:50:30;;;;;;;3.95;0.95;;;24.60;99.90;;;;;;5003930;28;20018;-46
2022/09/09 11:53:13;;;;;;;4.72;1.10;;;24.80;99.90;;;;;;5007828;28;20058;-56
2022/09/09 11:55:39;;;;;;;3.05;0.70;;;24.20;99.90;;;;;;5007737;28;20512;-53
2022/09/09 11:58:11;;;;;;;3.78;0.98;;;23.60;99.90;;;;;;5007602;28;20433;-54
2022/09/09 12:00:41;;;;;;;2.20;0.90;;;23.10;99.90;;;;;;4997332;28;20029;-58
2022/09/09 12:03:44;;;;;;;2.70;0.90;;;22.40;99.90;;;;;;5001629;28;20018;-45
2022/09/09 12:06:15;;;;;;;2.85;1.02;;;22.10;99.90;;;;;;5006549;28;20026;-50
2022/09/09 12:08:45;;;;;;;1.70;0.95;;;22.10;99.90;;;;;;4999985;28;20056;-52
2022/09/09 12:11:11;;;;;;;4.20;1.48;;;21.80;99.90;;;;;;4993942;28;20029;-53
2022/09/09 12:13:37;;;;;;;3.40;1.30;;;21.40;99.90;;;;;;4990860;28;20544;-44
2022/09/09 12:16:05;;;;;;;3.00;1.50;;;20.90;99.90;;;;;;5002461;28;20037;-48
2022/09/09 12:18:39;;;;;;;9.85;2.10;;;20.40;99.90;;;;;;5006246;28;20080;-53
2022/09/09 12:21:27;;;;;;;2.17;1.00;;;20.00;99.90;;;;;;4988519;28;20029;-47
2022/09/09 12:23:57;;;;;;;3.22;1.98;;;19.90;99.90;;;;;;5007200;28;20038;-45
2022/09/09 12:26:33;;;;;;;4.03;1.90;;;19.80;99.90;;;;;;5003567;28;20492;-46
2022/09/09 12:29:18;;;;;;;2.00;0.85;;;19.70;99.90;;;;;;5001719;28;20026;-49
2022/09/09 12:32:03;;;;;;;3.47;1.00;;;20.00;99.90;;;;;;5003194;28;20038;-45
2022/09/09 12:34:35;;;;;;;1.17;0.60;;;20.20;99.90;;;;;;5002499;28;20036;-49
2022/09/09 12:37:24;;;;;;;1.77;0.80;;;20.50;99.90;;;;;;5006365;28;20388;-46
2022/09/09 12:39:59;;;;;;;1.27;0.60;;;20.60;99.90;;;;;;4998534;28;20030;-47
2022/09/09 12:42:26;;;;;;;2.38;0.77;;;20.60;99.90;;;;;;5004703;28;20038;-46
2022/09/09 12:44:56;;;;;;;2.30;0.88;;;20.40;99.90;;;;;;5005712;28;20014;-52
2022/09/09 12:48:01;;;;;;;2.50;0.75;;;20.40;99.90;;;;;;5005099;28;20030;-55
2022/09/09 12:50:34;;;;;;;2.40;0.70;;;20.30;99.90;;;;;;5000975;28;20025;-48
2022/09/09 12:53:24;;;;;;;3.33;0.80;;;20.30;99.90;;;;;;5004337;28;20032;-45
2022/09/09 12:56:09;;;;;;;2.00;0.57;;;20.50;99.90;;;;;;5006464;28;20030;-54
2022/09/09 12:58:37;;;;;;;1.23;0.80;;;20.50;99.90;;;;;;5006293;28;20536;-45
2022/09/09 13:01:05;;;;;;;2.28;0.80;;;20.60;99.90;;;;;;5003574;28;20060;-54
2022/09/09 13:03:32;;;;;;;4.78;1.20;;;20.80;99.90;;;;;;5003459;28;20030;-46
2022/09/09 13:06:14;;;;;;;4.20;1.65;;;21.00;99.90;;;;;;5006796;28;20486;-49
2022/09/09 13:08:40;;;;;;;1.90;0.98;;;21.10;99.90;;;;;;5004587;28;20057;-44
2022/09/09 13:11:15;;;;;;;3.15;1.10;;;21.40;99.90;;;;;;5010005;28;20846;-49
2022/09/09 13:13:43;;;;;;;3.65;1.40;;;21.60;99.90;;;;;;4995787;28;20054;-53
2022/09/09 13:16:26;;;;;;;3.03;1.20;;;21.50;99.90;;;;;;5003484;28;20080;-52
2022/09/09 13:18:52;;;;;;;3.35;1.40;;;21.30;99.90;;;;;;5008844;28;20030;-44